sensor_id;sensor_type;location;lat;lon;timestamp;temperature;humidity
3268;DHT22;1646;52.450;13.326;2023-05-21T00:02:07;18.10;99.90
3268;DHT22;1646;52.450;13.326;2023-05-21T00:07:07;18.00;99.90
3268;DHT22;1646;52.450;13.326;2023-05-21T00:12:06;18.00;99.90
3268;DHT22;1646;52.450;13.326;2023-05-21T00:17:06;17.90;99.90
3268;DHT22;1646;52.450;13.326;2023-05-21T00:22:04;17.90;99.90
3268;DHT22;1646;52.450;13.326;2023-05-21T00:27:03;17.80;99.90
3268;DHT22;1646;52.450;13.326;2023-05-21T00:32:02;17.80;99.90
3268;DHT22;1646;52.450;13.326;2023-05-21T00:37:02;17.70;99.90
3268;DHT22;1646;52.450;13.326;2023-05-21T00:42:00;17.70;99.90
3268;DHT22;1646;52.450;13.326;2023-05-21T00:46:59;17.60;99.90
3268;DHT22;1646;52.450;13.326;2023-05-21T00:51:58;17.60;99.90
3268;DHT22;1646;52.450;13.326;2023-05-21T00:57:00;17.60;99.90
3268;DHT22;1646;52.450;13.326;2023-05-21T01:01:59;17.50;99.90
3268;DHT22;1646;52.450;13.326;2023-05-21T01:07:01;17.50;99.90
3268;DHT22;1646;52.450;13.326;2023-05-21T01:12:01;17.50;99.90
3268;DHT22;1646;52.450;13.326;2023-05-21T01:17:00;17.40;99.90
3268;DHT22;1646;52.450;13.326;2023-05-21T01:22:04;17.40;99.90
3268;DHT22;1646;52.450;13.326;2023-05-21T01:27:05;17.40;99.90
3268;DHT22;1646;52.450;13.326;2023-05-21T01:32:14;17.40;99.90
3268;DHT22;1646;52.450;13.326;2023-05-21T01:37:18;17.40;99.90
3268;DHT22;1646;52.450;13.326;2023-05-21T01:42:21;17.30;99.90
3268;DHT22;1646;52.450;13.326;2023-05-21T01:47:22;17.30;99.90
3268;DHT22;1646;52.450;13.326;2023-05-21T01:52:21;17.30;99.90
3268;DHT22;1646;52.450;13.326;2023-05-21T01:57:21;17.30;99.90
3268;DHT22;1646;52.450;13.326;2023-05-21T02:02:19;17.20;99.90
3268;DHT22;1646;52.450;13.326;2023-05-21T02:07:18;17.20;99.90
3268;DHT22;1646;52.450;13.326;2023-05-21T02:12:16;17.20;99.90
3268;DHT22;1646;52.450;13.326;2023-05-21T02:17:16;17.10;99.90
3268;DHT22;1646;52.450;13.326;2023-05-21T02:22:14;17.10;99.90
3268;DHT22;1646;52.450;13.326;2023-05-21T02:27:13;17.10;99.90
3268;DHT22;1646;52.450;13.326;2023-05-21T02:32:13;17.00;99.90
3268;DHT22;1646;52.450;13.326;2023-05-21T02:37:14;17.00;99.90
3268;DHT22;1646;52.450;13.326;2023-05-21T02:42:13;16.90;99.90
3268;DHT22;1646;52.450;13.326;2023-05-21T02:47:12;16.90;99.90
3268;DHT22;1646;52.450;13.326;2023-05-21T02:52:11;16.90;99.90
3268;DHT22;1646;52.450;13.326;2023-05-21T02:57:11;16.90;99.90
3268;DHT22;1646;52.450;13.326;2023-05-21T03:02:10;16.80;99.90
3268;DHT22;1646;52.450;13.326;2023-05-21T03:07:09;16.80;99.90
3268;DHT22;1646;52.450;13.326;2023-05-21T03:12:11;16.80;99.90
3268;DHT22;1646;52.450;13.326;2023-05-21T03:17:09;16.80;99.90
3268;DHT22;1646;52.450;13.326;2023-05-21T03:22:11;16.70;99.90
3268;DHT22;1646;52.450;13.326;2023-05-21T03:27:11;16.80;99.90
3268;DHT22;1646;52.450;13.326;2023-05-21T03:32:09;16.80;99.90
3268;DHT22;1646;52.450;13.326;2023-05-21T03:37:08;16.80;99.90
3268;DHT22;1646;52.450;13.326;2023-05-21T03:42:07;16.80;99.90
3268;DHT22;1646;52.450;13.326;2023-05-21T03:47:15;16.90;99.90
3268;DHT22;1646;52.450;13.326;2023-05-21T03:52:14;16.90;99.90
3268;DHT22;1646;52.450;13.326;2023-05-21T03:57:12;16.90;99.90
3268;DHT22;1646;52.450;13.326;2023-05-21T04:02:11;17.00;99.90
3268;DHT22;1646;52.450;13.326;2023-05-21T04:07:10;17.00;99.90
3268;DHT22;1646;52.450;13.326;2023-05-21T04:12:11;17.10;99.90
3268;DHT22;1646;52.450;13.326;2023-05-21T04:17:09;17.20;99.90
3268;DHT22;1646;52.450;13.326;2023-05-21T04:22:10;17.20;99.90
3268;DHT22;1646;52.450;13.326;2023-05-21T04:27:09;17.30;99.90
3268;DHT22;1646;52.450;13.326;2023-05-21T04:32:08;17.50;99.90
3268;DHT22;1646;52.450;13.326;2023-05-21T04:37:10;17.50;99.90
3268;DHT22;1646;52.450;13.326;2023-05-21T04:42:09;17.70;99.90
3268;DHT22;1646;52.450;13.326;2023-05-21T04:47:07;17.80;99.90
3268;DHT22;1646;52.450;13.326;2023-05-21T04:52:06;17.90;99.90
3268;DHT22;1646;52.450;13.326;2023-05-21T04:57:06;18.10;99.90
3268;DHT22;1646;52.450;13.326;2023-05-21T05:02:05;18.30;99.90
3268;DHT22;1646;52.450;13.326;2023-05-21T05:07:03;18.30;99.90
3268;DHT22;1646;52.450;13.326;2023-05-21T05:12:02;18.50;99.90
3268;DHT22;1646;52.450;13.326;2023-05-21T05:17:02;18.60;99.90
3268;DHT22;1646;52.450;13.326;2023-05-21T05:22:01;18.70;99.90
3268;DHT22;1646;52.450;13.326;2023-05-21T05:27:00;18.90;99.90
3268;DHT22;1646;52.450;13.326;2023-05-21T05:31:58;19.00;99.90
3268;DHT22;1646;52.450;13.326;2023-05-21T05:36:58;19.10;99.90
3268;DHT22;1646;52.450;13.326;2023-05-21T05:41:59;19.20;99.90
3268;DHT22;1646;52.450;13.326;2023-05-21T05:46:57;19.30;99.90
3268;DHT22;1646;52.450;13.326;2023-05-21T05:51:58;19.50;99.90
3268;DHT22;1646;52.450;13.326;2023-05-21T05:56:57;19.50;99.90
3268;DHT22;1646;52.450;13.326;2023-05-21T06:01:56;19.60;99.90
3268;DHT22;1646;52.450;13.326;2023-05-21T06:06:55;19.70;99.90
3268;DHT22;1646;52.450;13.326;2023-05-21T06:11:55;19.80;99.90
3268;DHT22;1646;52.450;13.326;2023-05-21T06:16:53;19.90;99.90
3268;DHT22;1646;52.450;13.326;2023-05-21T06:21:52;20.00;99.90
3268;DHT22;1646;52.450;13.326;2023-05-21T06:26:50;20.00;99.90
3268;DHT22;1646;52.450;13.326;2023-05-21T06:31:50;20.00;99.90
3268;DHT22;1646;52.450;13.326;2023-05-21T06:36:50;20.10;99.90
3268;DHT22;1646;52.450;13.326;2023-05-21T06:41:49;20.10;99.90
3268;DHT22;1646;52.450;13.326;2023-05-21T06:47:07;20.10;99.90
3268;DHT22;1646;52.450;13.326;2023-05-21T06:52:06;20.20;99.90
3268;DHT22;1646;52.450;13.326;2023-05-21T06:57:04;20.30;99.90
3268;DHT22;1646;52.450;13.326;2023-05-21T07:02:03;20.40;99.90
3268;DHT22;1646;52.450;13.326;2023-05-21T07:07:03;20.60;99.90
3268;DHT22;1646;52.450;13.326;2023-05-21T07:12:02;21.00;99.90
3268;DHT22;1646;52.450;13.326;2023-05-21T07:17:01;21.10;99.90
3268;DHT22;1646;52.450;13.326;2023-05-21T07:22:00;21.40;99.90
3268;DHT22;1646;52.450;13.326;2023-05-21T07:27:00;21.70;99.90
3268;DHT22;1646;52.450;13.326;2023-05-21T07:32:14;21.90;99.90
3268;DHT22;1646;52.450;13.326;2023-05-21T07:37:12;22.00;99.90
3268;DHT22;1646;52.450;13.326;2023-05-21T07:42:12;22.30;99.90
3268;DHT22;1646;52.450;13.326;2023-05-21T07:47:10;22.60;99.90
3268;DHT22;1646;52.450;13.326;2023-05-21T07:52:08;22.90;99.90
3268;DHT22;1646;52.450;13.326;2023-05-21T07:57:07;23.10;99.90
3268;DHT22;1646;52.450;13.326;2023-05-21T08:02:32;23.40;99.90
3268;DHT22;1646;52.450;13.326;2023-05-21T08:07:31;23.70;99.90
3268;DHT22;1646;52.450;13.326;2023-05-21T08:12:29;23.90;99.90
3268;DHT22;1646;52.450;13.326;2023-05-21T08:17:28;23.80;99.90
3268;DHT22;1646;52.450;13.326;2023-05-21T08:22:27;23.80;99.90
3268;DHT22;1646;52.450;13.326;2023-05-21T08:27:26;24.20;99.90
3268;DHT22;1646;52.450;13.326;2023-05-21T08:32:24;24.60;99.90
3268;DHT22;1646;52.450;13.326;2023-05-21T08:37:23;24.80;99.90
3268;DHT22;1646;52.450;13.326;2023-05-21T08:42:48;25.10;99.90
3268;DHT22;1646;52.450;13.326;2023-05-21T08:47:58;25.10;99.90
3268;DHT22;1646;52.450;13.326;2023-05-21T08:53:01;25.30;99.90
3268;DHT22;1646;52.450;13.326;2023-05-21T08:58:13;25.00;99.90
3268;DHT22;1646;52.450;13.326;2023-05-21T09:03:11;25.30;99.90
3268;DHT22;1646;52.450;13.326;2023-05-21T09:08:14;25.20;99.90
3268;DHT22;1646;52.450;13.326;2023-05-21T09:13:37;25.50;99.90
3268;DHT22;1646;52.450;13.326;2023-05-21T09:18:43;26.00;99.90
3268;DHT22;1646;52.450;13.326;2023-05-21T09:23:53;26.50;99.90
3268;DHT22;1646;52.450;13.326;2023-05-21T09:28:56;27.00;99.90
3268;DHT22;1646;52.450;13.326;2023-05-21T09:33:55;27.90;99.90
3268;DHT22;1646;52.450;13.326;2023-05-21T09:38:55;28.60;99.90
3268;DHT22;1646;52.450;13.326;2023-05-21T09:43:59;28.90;99.90
3268;DHT22;1646;52.450;13.326;2023-05-21T09:48:59;29.20;99.90
3268;DHT22;1646;52.450;13.326;2023-05-21T09:53:57;29.20;99.90
3268;DHT22;1646;52.450;13.326;2023-05-21T09:58:57;29.20;99.90
3268;DHT22;1646;52.450;13.326;2023-05-21T10:03:58;29.10;99.90
3268;DHT22;1646;52.450;13.326;2023-05-21T10:09:01;29.40;99.90
3268;DHT22;1646;52.450;13.326;2023-05-21T10:14:04;29.60;99.90
3268;DHT22;1646;52.450;13.326;2023-05-21T10:19:05;30.00;99.90
3268;DHT22;1646;52.450;13.326;2023-05-21T10:24:08;30.40;99.10
3268;DHT22;1646;52.450;13.326;2023-05-21T10:29:07;30.50;94.90
3268;DHT22;1646;52.450;13.326;2023-05-21T10:34:07;30.50;96.90
3268;DHT22;1646;52.450;13.326;2023-05-21T10:39:07;30.90;94.90
3268;DHT22;1646;52.450;13.326;2023-05-21T10:44:14;31.10;93.30
3268;DHT22;1646;52.450;13.326;2023-05-21T10:49:37;30.50;90.20
3268;DHT22;1646;52.450;13.326;2023-05-21T10:55:03;30.20;91.90
3268;DHT22;1646;52.450;13.326;2023-05-21T11:00:06;30.20;90.10
3268;DHT22;1646;52.450;13.326;2023-05-21T11:05:06;30.10;90.50
3268;DHT22;1646;52.450;13.326;2023-05-21T11:10:29;29.70;90.30
3268;DHT22;1646;52.450;13.326;2023-05-21T11:15:27;29.60;91.30
3268;DHT22;1646;52.450;13.326;2023-05-21T11:20:33;29.30;90.00
3268;DHT22;1646;52.450;13.326;2023-05-21T11:25:32;29.40;90.60
3268;DHT22;1646;52.450;13.326;2023-05-21T11:30:30;29.60;87.90
3268;DHT22;1646;52.450;13.326;2023-05-21T11:35:35;30.00;89.40
3268;DHT22;1646;52.450;13.326;2023-05-21T11:40:34;30.70;87.50
3268;DHT22;1646;52.450;13.326;2023-05-21T11:45:33;31.20;83.90
3268;DHT22;1646;52.450;13.326;2023-05-21T11:50:34;31.30;82.00
3268;DHT22;1646;52.450;13.326;2023-05-21T11:55:37;31.40;81.90
3268;DHT22;1646;52.450;13.326;2023-05-21T12:00:37;31.50;80.10
3268;DHT22;1646;52.450;13.326;2023-05-21T12:05:44;31.40;80.30
3268;DHT22;1646;52.450;13.326;2023-05-21T12:10:43;31.00;78.30
3268;DHT22;1646;52.450;13.326;2023-05-21T12:15:42;30.70;79.60
3268;DHT22;1646;52.450;13.326;2023-05-21T12:20:43;31.00;81.50
3268;DHT22;1646;52.450;13.326;2023-05-21T12:25:42;30.80;79.70
3268;DHT22;1646;52.450;13.326;2023-05-21T12:30:40;31.00;78.20
3268;DHT22;1646;52.450;13.326;2023-05-21T12:35:38;31.10;78.20
3268;DHT22;1646;52.450;13.326;2023-05-21T12:40:38;31.30;80.40
3268;DHT22;1646;52.450;13.326;2023-05-21T12:45:38;31.30;76.60
3268;DHT22;1646;52.450;13.326;2023-05-21T12:50:38;31.10;76.80
3268;DHT22;1646;52.450;13.326;2023-05-21T12:55:39;31.00;75.40
3268;DHT22;1646;52.450;13.326;2023-05-21T13:00:40;31.10;76.30
3268;DHT22;1646;52.450;13.326;2023-05-21T13:05:39;31.30;74.60
3268;DHT22;1646;52.450;13.326;2023-05-21T13:10:39;31.30;74.70
3268;DHT22;1646;52.450;13.326;2023-05-21T13:15:37;31.10;74.50
3268;DHT22;1646;52.450;13.326;2023-05-21T13:20:36;31.20;73.40
3268;DHT22;1646;52.450;13.326;2023-05-21T13:25:35;31.50;73.20
3268;DHT22;1646;52.450;13.326;2023-05-21T13:30:34;32.00;74.10
3268;DHT22;1646;52.450;13.326;2023-05-21T13:35:33;32.30;72.20
3268;DHT22;1646;52.450;13.326;2023-05-21T13:40:32;32.10;71.30
3268;DHT22;1646;52.450;13.326;2023-05-21T13:45:35;31.70;71.10
3268;DHT22;1646;52.450;13.326;2023-05-21T13:50:34;31.20;71.40
3268;DHT22;1646;52.450;13.326;2023-05-21T13:55:33;31.20;72.70
3268;DHT22;1646;52.450;13.326;2023-05-21T14:00:31;30.90;70.50
3268;DHT22;1646;52.450;13.326;2023-05-21T14:05:31;30.90;72.50
3268;DHT22;1646;52.450;13.326;2023-05-21T14:10:30;31.10;69.90
3268;DHT22;1646;52.450;13.326;2023-05-21T14:15:28;30.90;70.00
3268;DHT22;1646;52.450;13.326;2023-05-21T14:20:28;30.60;71.50
3268;DHT22;1646;52.450;13.326;2023-05-21T14:25:27;30.50;73.80
3268;DHT22;1646;52.450;13.326;2023-05-21T14:30:26;30.30;72.60
3268;DHT22;1646;52.450;13.326;2023-05-21T14:35:24;30.10;75.40
3268;DHT22;1646;52.450;13.326;2023-05-21T14:40:22;29.90;73.40
3268;DHT22;1646;52.450;13.326;2023-05-21T14:45:22;29.90;73.70
3268;DHT22;1646;52.450;13.326;2023-05-21T14:50:20;29.90;73.10
3268;DHT22;1646;52.450;13.326;2023-05-21T14:55:18;29.90;73.00
3268;DHT22;1646;52.450;13.326;2023-05-21T15:00:18;29.90;73.70
3268;DHT22;1646;52.450;13.326;2023-05-21T15:05:18;29.90;73.40
3268;DHT22;1646;52.450;13.326;2023-05-21T15:10:16;29.80;73.90
3268;DHT22;1646;52.450;13.326;2023-05-21T15:15:15;29.80;74.10
3268;DHT22;1646;52.450;13.326;2023-05-21T15:20:14;29.90;73.90
3268;DHT22;1646;52.450;13.326;2023-05-21T15:25:13;29.90;73.90
3268;DHT22;1646;52.450;13.326;2023-05-21T15:30:15;30.00;73.60
3268;DHT22;1646;52.450;13.326;2023-05-21T15:35:13;29.80;73.80
3268;DHT22;1646;52.450;13.326;2023-05-21T15:40:13;29.60;73.70
3268;DHT22;1646;52.450;13.326;2023-05-21T15:45:12;29.40;73.50
3268;DHT22;1646;52.450;13.326;2023-05-21T15:50:10;29.10;73.90
3268;DHT22;1646;52.450;13.326;2023-05-21T15:55:09;29.00;74.60
3268;DHT22;1646;52.450;13.326;2023-05-21T16:00:09;29.10;73.90
3268;DHT22;1646;52.450;13.326;2023-05-21T16:05:08;29.30;74.70
3268;DHT22;1646;52.450;13.326;2023-05-21T16:10:08;29.50;73.20
3268;DHT22;1646;52.450;13.326;2023-05-21T16:15:11;29.70;74.00
3268;DHT22;1646;52.450;13.326;2023-05-21T16:20:10;29.90;72.30
3268;DHT22;1646;52.450;13.326;2023-05-21T16:25:09;29.90;72.70
3268;DHT22;1646;52.450;13.326;2023-05-21T16:30:09;29.90;72.20
3268;DHT22;1646;52.450;13.326;2023-05-21T16:35:08;29.90;72.40
3268;DHT22;1646;52.450;13.326;2023-05-21T16:40:07;29.70;69.70
3268;DHT22;1646;52.450;13.326;2023-05-21T16:45:09;29.50;71.00
3268;DHT22;1646;52.450;13.326;2023-05-21T16:50:09;29.30;70.70
3268;DHT22;1646;52.450;13.326;2023-05-21T16:55:08;29.10;71.00
3268;DHT22;1646;52.450;13.326;2023-05-21T17:00:07;28.90;71.00
3268;DHT22;1646;52.450;13.326;2023-05-21T17:05:07;28.80;71.10
3268;DHT22;1646;52.450;13.326;2023-05-21T17:10:06;28.50;70.60
3268;DHT22;1646;52.450;13.326;2023-05-21T17:15:06;28.30;70.90
3268;DHT22;1646;52.450;13.326;2023-05-21T17:20:07;28.20;71.40
3268;DHT22;1646;52.450;13.326;2023-05-21T17:25:07;27.90;71.30
3268;DHT22;1646;52.450;13.326;2023-05-21T17:30:07;27.70;71.90
3268;DHT22;1646;52.450;13.326;2023-05-21T17:35:08;27.60;72.20
3268;DHT22;1646;52.450;13.326;2023-05-21T17:40:07;27.40;71.90
3268;DHT22;1646;52.450;13.326;2023-05-21T17:45:06;27.20;72.20
3268;DHT22;1646;52.450;13.326;2023-05-21T17:50:08;27.10;72.50
3268;DHT22;1646;52.450;13.326;2023-05-21T17:55:08;27.00;73.20
3268;DHT22;1646;52.450;13.326;2023-05-21T18:00:07;26.90;74.00
3268;DHT22;1646;52.450;13.326;2023-05-21T18:05:10;26.80;74.00
3268;DHT22;1646;52.450;13.326;2023-05-21T18:10:08;26.60;74.00
3268;DHT22;1646;52.450;13.326;2023-05-21T18:15:07;26.40;74.10
3268;DHT22;1646;52.450;13.326;2023-05-21T18:20:07;26.30;74.60
3268;DHT22;1646;52.450;13.326;2023-05-21T18:25:08;26.20;75.00
3268;DHT22;1646;52.450;13.326;2023-05-21T18:30:10;26.00;74.90
3268;DHT22;1646;52.450;13.326;2023-05-21T18:35:08;26.00;74.90
3268;DHT22;1646;52.450;13.326;2023-05-21T18:40:12;25.90;74.50
3268;DHT22;1646;52.450;13.326;2023-05-21T18:45:15;25.70;75.00
3268;DHT22;1646;52.450;13.326;2023-05-21T18:50:27;25.60;74.80
3268;DHT22;1646;52.450;13.326;2023-05-21T18:55:27;25.50;74.90
3268;DHT22;1646;52.450;13.326;2023-05-21T19:00:25;25.40;75.00
3268;DHT22;1646;52.450;13.326;2023-05-21T19:05:23;25.30;75.30
3268;DHT22;1646;52.450;13.326;2023-05-21T19:10:21;25.30;75.40
3268;DHT22;1646;52.450;13.326;2023-05-21T19:15:23;25.20;75.10
3268;DHT22;1646;52.450;13.326;2023-05-21T19:20:22;25.10;75.40
3268;DHT22;1646;52.450;13.326;2023-05-21T19:25:21;25.00;75.50
3268;DHT22;1646;52.450;13.326;2023-05-21T19:30:21;24.90;75.40
3268;DHT22;1646;52.450;13.326;2023-05-21T19:35:20;24.80;75.50
3268;DHT22;1646;52.450;13.326;2023-05-21T19:40:19;24.80;75.70
3268;DHT22;1646;52.450;13.326;2023-05-21T19:45:18;24.80;75.90
3268;DHT22;1646;52.450;13.326;2023-05-21T19:50:18;24.70;75.80
3268;DHT22;1646;52.450;13.326;2023-05-21T19:55:17;24.60;76.10
3268;DHT22;1646;52.450;13.326;2023-05-21T20:00:16;24.60;75.90
3268;DHT22;1646;52.450;13.326;2023-05-21T20:05:14;24.50;75.80
3268;DHT22;1646;52.450;13.326;2023-05-21T20:10:15;24.40;75.60
3268;DHT22;1646;52.450;13.326;2023-05-21T20:15:14;24.40;76.40
3268;DHT22;1646;52.450;13.326;2023-05-21T20:20:14;24.30;75.50
3268;DHT22;1646;52.450;13.326;2023-05-21T20:25:12;24.30;75.60
3268;DHT22;1646;52.450;13.326;2023-05-21T20:30:12;24.30;75.60
3268;DHT22;1646;52.450;13.326;2023-05-21T20:35:11;24.20;75.40
3268;DHT22;1646;52.450;13.326;2023-05-21T20:40:10;24.20;75.50
3268;DHT22;1646;52.450;13.326;2023-05-21T20:45:12;24.10;75.30
3268;DHT22;1646;52.450;13.326;2023-05-21T20:50:11;24.10;75.30
3268;DHT22;1646;52.450;13.326;2023-05-21T20:55:10;24.00;75.00
3268;DHT22;1646;52.450;13.326;2023-05-21T21:00:09;24.00;75.00
3268;DHT22;1646;52.450;13.326;2023-05-21T21:05:09;24.00;74.80
3268;DHT22;1646;52.450;13.326;2023-05-21T21:10:08;24.00;74.50
3268;DHT22;1646;52.450;13.326;2023-05-21T21:15:08;23.90;74.50
3268;DHT22;1646;52.450;13.326;2023-05-21T21:20:08;23.90;74.60
3268;DHT22;1646;52.450;13.326;2023-05-21T21:25:09;23.80;75.10
3268;DHT22;1646;52.450;13.326;2023-05-21T21:30:08;23.70;75.30
3268;DHT22;1646;52.450;13.326;2023-05-21T21:35:07;23.60;75.40
3268;DHT22;1646;52.450;13.326;2023-05-21T21:40:08;23.60;75.70
3268;DHT22;1646;52.450;13.326;2023-05-21T21:45:08;23.50;75.70
3268;DHT22;1646;52.450;13.326;2023-05-21T21:50:07;23.50;76.10
3268;DHT22;1646;52.450;13.326;2023-05-21T21:55:09;23.50;76.40
3268;DHT22;1646;52.450;13.326;2023-05-21T22:00:08;23.40;76.60
3268;DHT22;1646;52.450;13.326;2023-05-21T22:05:12;23.30;77.30
3268;DHT22;1646;52.450;13.326;2023-05-21T22:10:12;23.20;77.40
3268;DHT22;1646;52.450;13.326;2023-05-21T22:15:18;23.20;77.80
3268;DHT22;1646;52.450;13.326;2023-05-21T22:20:16;23.10;78.20
3268;DHT22;1646;52.450;13.326;2023-05-21T22:25:16;23.00;79.50
3268;DHT22;1646;52.450;13.326;2023-05-21T22:30:15;22.90;79.10
3268;DHT22;1646;52.450;13.326;2023-05-21T22:35:16;22.80;79.50
3268;DHT22;1646;52.450;13.326;2023-05-21T22:40:16;22.70;80.00
3268;DHT22;1646;52.450;13.326;2023-05-21T22:45:15;22.60;80.10
3268;DHT22;1646;52.450;13.326;2023-05-21T22:50:14;22.50;80.30
3268;DHT22;1646;52.450;13.326;2023-05-21T22:55:16;22.40;80.40
3268;DHT22;1646;52.450;13.326;2023-05-21T23:00:15;22.40;80.80
3268;DHT22;1646;52.450;13.326;2023-05-21T23:05:15;22.30;80.90
3268;DHT22;1646;52.450;13.326;2023-05-21T23:10:13;22.30;80.50
3268;DHT22;1646;52.450;13.326;2023-05-21T23:15:13;22.20;81.30
3268;DHT22;1646;52.450;13.326;2023-05-21T23:20:11;22.20;81.10
3268;DHT22;1646;52.450;13.326;2023-05-21T23:25:11;22.10;81.20
3268;DHT22;1646;52.450;13.326;2023-05-21T23:30:10;22.10;81.60
3268;DHT22;1646;52.450;13.326;2023-05-21T23:35:10;22.00;81.70
3268;DHT22;1646;52.450;13.326;2023-05-21T23:40:11;22.00;81.60
3268;DHT22;1646;52.450;13.326;2023-05-21T23:45:10;22.00;81.70
3268;DHT22;1646;52.450;13.326;2023-05-21T23:50:10;21.90;81.50
3268;DHT22;1646;52.450;13.326;2023-05-21T23:55:09;21.90;82.30
